sensor_id;sensor_type;location;lat;lon;timestamp;temperature;humidity
24262;DHT22;12385;51.412;5.540;2023-11-19T00:00:46;13.10;99.90
24262;DHT22;12385;51.412;5.540;2023-11-19T00:03:12;13.20;99.90
24262;DHT22;12385;51.412;5.540;2023-11-19T00:05:38;13.20;99.90
24262;DHT22;12385;51.412;5.540;2023-11-19T00:08:04;13.10;99.90
24262;DHT22;12385;51.412;5.540;2023-11-19T00:10:31;13.20;99.90
24262;DHT22;12385;51.412;5.540;2023-11-19T00:12:57;13.20;99.90
24262;DHT22;12385;51.412;5.540;2023-11-19T00:15:23;13.20;99.90
24262;DHT22;12385;51.412;5.540;2023-11-19T00:17:51;13.20;99.90
24262;DHT22;12385;51.412;5.540;2023-11-19T00:20:20;13.20;99.90
24262;DHT22;12385;51.412;5.540;2023-11-19T00:22:48;13.20;99.90
24262;DHT22;12385;51.412;5.540;2023-11-19T00:25:20;13.20;99.90
24262;DHT22;12385;51.412;5.540;2023-11-19T00:27:47;13.30;99.90
24262;DHT22;12385;51.412;5.540;2023-11-19T00:30:15;13.20;99.90
24262;DHT22;12385;51.412;5.540;2023-11-19T00:32:42;13.30;99.90
24262;DHT22;12385;51.412;5.540;2023-11-19T00:35:08;13.30;99.90
24262;DHT22;12385;51.412;5.540;2023-11-19T00:37:35;13.30;99.90
24262;DHT22;12385;51.412;5.540;2023-11-19T00:40:01;13.30;99.90
24262;DHT22;12385;51.412;5.540;2023-11-19T00:42:30;13.30;99.90
24262;DHT22;12385;51.412;5.540;2023-11-19T00:44:56;13.30;99.90
24262;DHT22;12385;51.412;5.540;2023-11-19T00:47:23;13.30;99.90
24262;DHT22;12385;51.412;5.540;2023-11-19T00:49:52;13.30;99.90
24262;DHT22;12385;51.412;5.540;2023-11-19T00:52:19;13.30;99.90
24262;DHT22;12385;51.412;5.540;2023-11-19T00:54:45;13.30;99.90
24262;DHT22;12385;51.412;5.540;2023-11-19T00:57:11;13.30;99.90
24262;DHT22;12385;51.412;5.540;2023-11-19T00:59:36;13.30;99.90
24262;DHT22;12385;51.412;5.540;2023-11-19T01:02:02;13.20;99.90
24262;DHT22;12385;51.412;5.540;2023-11-19T01:04:34;13.30;99.90
24262;DHT22;12385;51.412;5.540;2023-11-19T01:07:02;13.30;99.90
24262;DHT22;12385;51.412;5.540;2023-11-19T01:09:29;13.20;99.90
24262;DHT22;12385;51.412;5.540;2023-11-19T01:11:55;13.30;99.90
24262;DHT22;12385;51.412;5.540;2023-11-19T01:14:20;13.30;99.90
24262;DHT22;12385;51.412;5.540;2023-11-19T01:16:46;13.30;99.90
24262;DHT22;12385;51.412;5.540;2023-11-19T01:19:12;13.30;99.90
24262;DHT22;12385;51.412;5.540;2023-11-19T01:21:37;13.30;99.90
24262;DHT22;12385;51.412;5.540;2023-11-19T01:24:03;13.30;99.90
24262;DHT22;12385;51.412;5.540;2023-11-19T01:26:31;13.30;99.90
24262;DHT22;12385;51.412;5.540;2023-11-19T01:28:57;13.20;99.90
24262;DHT22;12385;51.412;5.540;2023-11-19T01:31:22;13.20;99.90
24262;DHT22;12385;51.412;5.540;2023-11-19T01:33:50;13.20;99.90
24262;DHT22;12385;51.412;5.540;2023-11-19T01:36:16;13.20;99.90
24262;DHT22;12385;51.412;5.540;2023-11-19T01:38:42;13.20;99.90
24262;DHT22;12385;51.412;5.540;2023-11-19T01:41:07;13.20;99.90
24262;DHT22;12385;51.412;5.540;2023-11-19T01:43:37;13.20;99.90
24262;DHT22;12385;51.412;5.540;2023-11-19T01:46:05;13.20;99.90
24262;DHT22;12385;51.412;5.540;2023-11-19T01:48:34;13.20;99.90
24262;DHT22;12385;51.412;5.540;2023-11-19T01:51:01;13.20;99.90
24262;DHT22;12385;51.412;5.540;2023-11-19T01:53:30;13.20;99.90
24262;DHT22;12385;51.412;5.540;2023-11-19T01:55:56;13.30;99.90
24262;DHT22;12385;51.412;5.540;2023-11-19T01:58:23;13.20;99.90
24262;DHT22;12385;51.412;5.540;2023-11-19T02:00:51;13.20;99.90
24262;DHT22;12385;51.412;5.540;2023-11-19T02:03:17;13.20;99.90
24262;DHT22;12385;51.412;5.540;2023-11-19T02:05:43;13.20;99.90
24262;DHT22;12385;51.412;5.540;2023-11-19T02:08:08;13.30;99.90
24262;DHT22;12385;51.412;5.540;2023-11-19T02:10:34;13.30;99.90
24262;DHT22;12385;51.412;5.540;2023-11-19T02:13:01;13.30;99.90
24262;DHT22;12385;51.412;5.540;2023-11-19T02:15:26;13.30;99.90
24262;DHT22;12385;51.412;5.540;2023-11-19T02:17:52;13.30;99.90
24262;DHT22;12385;51.412;5.540;2023-11-19T02:20:21;13.30;99.90
24262;DHT22;12385;51.412;5.540;2023-11-19T02:22:47;13.30;99.90
24262;DHT22;12385;51.412;5.540;2023-11-19T02:25:22;13.20;99.90
24262;DHT22;12385;51.412;5.540;2023-11-19T02:27:55;13.20;99.90
24262;DHT22;12385;51.412;5.540;2023-11-19T02:30:22;13.10;99.90
24262;DHT22;12385;51.412;5.540;2023-11-19T02:32:52;13.00;99.90
24262;DHT22;12385;51.412;5.540;2023-11-19T02:35:20;13.00;99.90
24262;DHT22;12385;51.412;5.540;2023-11-19T02:37:47;13.00;99.90
24262;DHT22;12385;51.412;5.540;2023-11-19T02:40:13;12.90;99.90
24262;DHT22;12385;51.412;5.540;2023-11-19T02:42:39;12.90;99.90
24262;DHT22;12385;51.412;5.540;2023-11-19T02:45:04;12.80;99.90
24262;DHT22;12385;51.412;5.540;2023-11-19T02:47:32;12.80;99.90
24262;DHT22;12385;51.412;5.540;2023-11-19T02:49:59;12.90;99.90
24262;DHT22;12385;51.412;5.540;2023-11-19T02:52:24;12.80;99.90
24262;DHT22;12385;51.412;5.540;2023-11-19T02:54:51;12.80;99.90
24262;DHT22;12385;51.412;5.540;2023-11-19T02:57:17;12.80;99.90
24262;DHT22;12385;51.412;5.540;2023-11-19T02:59:45;12.70;99.90
24262;DHT22;12385;51.412;5.540;2023-11-19T03:02:11;12.70;99.90
24262;DHT22;12385;51.412;5.540;2023-11-19T03:04:37;12.60;99.90
24262;DHT22;12385;51.412;5.540;2023-11-19T03:07:06;12.60;99.90
24262;DHT22;12385;51.412;5.540;2023-11-19T03:09:35;12.60;99.90
24262;DHT22;12385;51.412;5.540;2023-11-19T03:12:01;12.60;99.90
24262;DHT22;12385;51.412;5.540;2023-11-19T03:14:27;12.60;99.90
24262;DHT22;12385;51.412;5.540;2023-11-19T03:16:53;12.60;99.90
24262;DHT22;12385;51.412;5.540;2023-11-19T03:19:20;12.50;99.90
24262;DHT22;12385;51.412;5.540;2023-11-19T03:21:46;12.50;99.90
24262;DHT22;12385;51.412;5.540;2023-11-19T03:24:14;12.50;99.90
24262;DHT22;12385;51.412;5.540;2023-11-19T03:26:40;12.40;99.90
24262;DHT22;12385;51.412;5.540;2023-11-19T03:29:08;12.40;99.90
24262;DHT22;12385;51.412;5.540;2023-11-19T03:31:34;12.40;99.90
24262;DHT22;12385;51.412;5.540;2023-11-19T03:34:00;12.40;99.90
24262;DHT22;12385;51.412;5.540;2023-11-19T03:36:32;12.40;99.90
24262;DHT22;12385;51.412;5.540;2023-11-19T03:38:58;12.50;99.90
24262;DHT22;12385;51.412;5.540;2023-11-19T03:41:24;12.50;99.90
24262;DHT22;12385;51.412;5.540;2023-11-19T03:43:50;12.50;99.90
24262;DHT22;12385;51.412;5.540;2023-11-19T03:46:18;12.40;99.90
24262;DHT22;12385;51.412;5.540;2023-11-19T03:48:47;12.40;99.90
24262;DHT22;12385;51.412;5.540;2023-11-19T03:51:13;12.40;99.90
24262;DHT22;12385;51.412;5.540;2023-11-19T03:53:45;12.40;99.90
24262;DHT22;12385;51.412;5.540;2023-11-19T03:56:11;12.40;99.90
24262;DHT22;12385;51.412;5.540;2023-11-19T03:58:37;12.40;99.90
24262;DHT22;12385;51.412;5.540;2023-11-19T04:01:04;12.40;99.90
24262;DHT22;12385;51.412;5.540;2023-11-19T04:03:30;12.40;99.90
24262;DHT22;12385;51.412;5.540;2023-11-19T04:05:55;12.40;99.90
24262;DHT22;12385;51.412;5.540;2023-11-19T04:08:22;12.40;99.90
24262;DHT22;12385;51.412;5.540;2023-11-19T04:10:47;12.40;99.90
24262;DHT22;12385;51.412;5.540;2023-11-19T04:13:13;12.40;99.90
24262;DHT22;12385;51.412;5.540;2023-11-19T04:15:39;12.40;99.90
24262;DHT22;12385;51.412;5.540;2023-11-19T04:18:04;12.40;99.90
24262;DHT22;12385;51.412;5.540;2023-11-19T04:20:30;12.40;99.90
24262;DHT22;12385;51.412;5.540;2023-11-19T04:22:57;12.40;99.90
24262;DHT22;12385;51.412;5.540;2023-11-19T04:25:23;12.40;99.90
24262;DHT22;12385;51.412;5.540;2023-11-19T04:27:51;12.40;99.90
24262;DHT22;12385;51.412;5.540;2023-11-19T04:30:17;12.40;99.90
24262;DHT22;12385;51.412;5.540;2023-11-19T04:32:44;12.40;99.90
24262;DHT22;12385;51.412;5.540;2023-11-19T04:35:09;12.40;99.90
24262;DHT22;12385;51.412;5.540;2023-11-19T04:37:36;12.40;99.90
24262;DHT22;12385;51.412;5.540;2023-11-19T04:40:02;12.40;99.90
24262;DHT22;12385;51.412;5.540;2023-11-19T04:42:28;12.40;99.90
24262;DHT22;12385;51.412;5.540;2023-11-19T04:44:55;12.40;99.90
24262;DHT22;12385;51.412;5.540;2023-11-19T04:47:21;12.50;99.90
24262;DHT22;12385;51.412;5.540;2023-11-19T04:49:47;12.50;99.90
24262;DHT22;12385;51.412;5.540;2023-11-19T04:52:13;12.50;99.90
24262;DHT22;12385;51.412;5.540;2023-11-19T04:54:42;12.40;99.90
24262;DHT22;12385;51.412;5.540;2023-11-19T04:57:09;12.40;99.90
24262;DHT22;12385;51.412;5.540;2023-11-19T04:59:38;12.40;99.90
24262;DHT22;12385;51.412;5.540;2023-11-19T05:02:04;12.40;99.90
24262;DHT22;12385;51.412;5.540;2023-11-19T05:04:30;12.40;99.90
24262;DHT22;12385;51.412;5.540;2023-11-19T05:06:56;12.30;99.90
24262;DHT22;12385;51.412;5.540;2023-11-19T05:09:22;12.30;99.90
24262;DHT22;12385;51.412;5.540;2023-11-19T05:11:47;12.20;99.90
24262;DHT22;12385;51.412;5.540;2023-11-19T05:14:14;12.20;99.90
24262;DHT22;12385;51.412;5.540;2023-11-19T05:16:40;12.20;99.90
24262;DHT22;12385;51.412;5.540;2023-11-19T05:19:06;12.20;99.90
24262;DHT22;12385;51.412;5.540;2023-11-19T05:21:32;12.20;99.90
24262;DHT22;12385;51.412;5.540;2023-11-19T05:23:57;12.20;99.90
24262;DHT22;12385;51.412;5.540;2023-11-19T05:26:24;12.20;99.90
24262;DHT22;12385;51.412;5.540;2023-11-19T05:28:52;12.20;99.90
24262;DHT22;12385;51.412;5.540;2023-11-19T05:31:18;12.10;99.90
24262;DHT22;12385;51.412;5.540;2023-11-19T05:33:44;12.10;99.90
24262;DHT22;12385;51.412;5.540;2023-11-19T05:36:11;12.10;99.90
24262;DHT22;12385;51.412;5.540;2023-11-19T05:38:38;12.10;99.90
24262;DHT22;12385;51.412;5.540;2023-11-19T05:41:04;12.10;99.90
24262;DHT22;12385;51.412;5.540;2023-11-19T05:43:30;12.10;99.90
24262;DHT22;12385;51.412;5.540;2023-11-19T05:45:56;12.10;99.90
24262;DHT22;12385;51.412;5.540;2023-11-19T05:48:21;12.10;99.90
24262;DHT22;12385;51.412;5.540;2023-11-19T05:50:48;12.10;99.90
24262;DHT22;12385;51.412;5.540;2023-11-19T05:53:16;12.00;99.90
24262;DHT22;12385;51.412;5.540;2023-11-19T05:55:41;12.00;99.90
24262;DHT22;12385;51.412;5.540;2023-11-19T05:58:14;12.00;99.90
24262;DHT22;12385;51.412;5.540;2023-11-19T06:00:40;12.00;99.90
24262;DHT22;12385;51.412;5.540;2023-11-19T06:03:07;12.00;99.90
24262;DHT22;12385;51.412;5.540;2023-11-19T06:05:33;12.00;99.90
24262;DHT22;12385;51.412;5.540;2023-11-19T06:07:58;11.90;99.90
24262;DHT22;12385;51.412;5.540;2023-11-19T06:10:24;11.80;99.90
24262;DHT22;12385;51.412;5.540;2023-11-19T06:12:59;11.80;99.90
24262;DHT22;12385;51.412;5.540;2023-11-19T06:15:26;11.80;99.90
24262;DHT22;12385;51.412;5.540;2023-11-19T06:17:52;11.70;99.90
24262;DHT22;12385;51.412;5.540;2023-11-19T06:20:18;11.80;99.90
24262;DHT22;12385;51.412;5.540;2023-11-19T06:22:46;11.80;99.90
24262;DHT22;12385;51.412;5.540;2023-11-19T06:25:12;11.70;99.90
24262;DHT22;12385;51.412;5.540;2023-11-19T06:27:41;11.70;99.90
24262;DHT22;12385;51.412;5.540;2023-11-19T06:30:07;11.70;99.90
24262;DHT22;12385;51.412;5.540;2023-11-19T06:32:33;11.70;99.90
24262;DHT22;12385;51.412;5.540;2023-11-19T06:34:59;11.60;99.90
24262;DHT22;12385;51.412;5.540;2023-11-19T06:37:25;11.60;99.90
24262;DHT22;12385;51.412;5.540;2023-11-19T06:39:52;11.60;99.90
24262;DHT22;12385;51.412;5.540;2023-11-19T06:42:17;11.50;99.90
24262;DHT22;12385;51.412;5.540;2023-11-19T06:44:43;11.50;99.90
24262;DHT22;12385;51.412;5.540;2023-11-19T06:47:09;11.50;99.90
24262;DHT22;12385;51.412;5.540;2023-11-19T06:49:34;11.50;99.90
24262;DHT22;12385;51.412;5.540;2023-11-19T06:52:00;11.50;99.90
24262;DHT22;12385;51.412;5.540;2023-11-19T06:54:25;11.50;99.90
24262;DHT22;12385;51.412;5.540;2023-11-19T06:56:54;11.50;99.90
24262;DHT22;12385;51.412;5.540;2023-11-19T06:59:25;11.50;99.90
24262;DHT22;12385;51.412;5.540;2023-11-19T07:01:52;11.50;99.90
24262;DHT22;12385;51.412;5.540;2023-11-19T07:04:18;11.50;99.90
24262;DHT22;12385;51.412;5.540;2023-11-19T07:06:43;11.50;99.90
24262;DHT22;12385;51.412;5.540;2023-11-19T07:09:09;11.50;99.90
24262;DHT22;12385;51.412;5.540;2023-11-19T07:11:39;11.50;99.90
24262;DHT22;12385;51.412;5.540;2023-11-19T07:14:05;11.40;99.90
24262;DHT22;12385;51.412;5.540;2023-11-19T07:16:35;11.40;99.90
24262;DHT22;12385;51.412;5.540;2023-11-19T07:19:03;11.40;99.90
24262;DHT22;12385;51.412;5.540;2023-11-19T07:21:29;11.40;99.90
24262;DHT22;12385;51.412;5.540;2023-11-19T07:23:55;11.40;99.90
24262;DHT22;12385;51.412;5.540;2023-11-19T07:26:22;11.30;99.90
24262;DHT22;12385;51.412;5.540;2023-11-19T07:28:51;11.30;99.90
24262;DHT22;12385;51.412;5.540;2023-11-19T07:31:18;11.30;99.90
24262;DHT22;12385;51.412;5.540;2023-11-19T07:33:47;11.40;99.90
24262;DHT22;12385;51.412;5.540;2023-11-19T07:36:13;11.40;99.90
24262;DHT22;12385;51.412;5.540;2023-11-19T07:38:39;11.40;99.90
24262;DHT22;12385;51.412;5.540;2023-11-19T07:41:05;11.40;99.90
24262;DHT22;12385;51.412;5.540;2023-11-19T07:43:32;11.40;99.90
24262;DHT22;12385;51.412;5.540;2023-11-19T07:45:58;11.40;99.90
24262;DHT22;12385;51.412;5.540;2023-11-19T07:48:27;11.50;99.90
24262;DHT22;12385;51.412;5.540;2023-11-19T07:50:53;11.40;99.90
24262;DHT22;12385;51.412;5.540;2023-11-19T07:53:21;11.40;99.90
24262;DHT22;12385;51.412;5.540;2023-11-19T07:55:46;11.50;99.90
24262;DHT22;12385;51.412;5.540;2023-11-19T07:58:12;11.40;99.90
24262;DHT22;12385;51.412;5.540;2023-11-19T08:00:38;11.40;99.90
24262;DHT22;12385;51.412;5.540;2023-11-19T08:03:04;11.40;99.90
24262;DHT22;12385;51.412;5.540;2023-11-19T08:05:30;11.40;99.90
24262;DHT22;12385;51.412;5.540;2023-11-19T08:07:56;11.40;99.90
24262;DHT22;12385;51.412;5.540;2023-11-19T08:10:22;11.50;99.90
24262;DHT22;12385;51.412;5.540;2023-11-19T08:12:48;11.50;99.90
24262;DHT22;12385;51.412;5.540;2023-11-19T08:15:14;11.50;99.90
24262;DHT22;12385;51.412;5.540;2023-11-19T08:17:39;11.50;99.90
24262;DHT22;12385;51.412;5.540;2023-11-19T08:20:05;11.60;99.90
24262;DHT22;12385;51.412;5.540;2023-11-19T08:22:38;11.60;99.90
24262;DHT22;12385;51.412;5.540;2023-11-19T08:25:05;11.60;99.90
24262;DHT22;12385;51.412;5.540;2023-11-19T08:27:31;11.60;99.90
24262;DHT22;12385;51.412;5.540;2023-11-19T08:29:57;11.60;99.90
24262;DHT22;12385;51.412;5.540;2023-11-19T08:32:26;11.70;99.90
24262;DHT22;12385;51.412;5.540;2023-11-19T08:34:52;11.70;99.90
24262;DHT22;12385;51.412;5.540;2023-11-19T08:37:20;11.80;99.90
24262;DHT22;12385;51.412;5.540;2023-11-19T08:39:49;11.80;99.90
24262;DHT22;12385;51.412;5.540;2023-11-19T08:42:16;11.80;99.90
24262;DHT22;12385;51.412;5.540;2023-11-19T08:44:43;11.90;99.90
24262;DHT22;12385;51.412;5.540;2023-11-19T08:47:12;11.90;99.90
24262;DHT22;12385;51.412;5.540;2023-11-19T08:49:39;11.90;99.90
24262;DHT22;12385;51.412;5.540;2023-11-19T08:52:05;12.00;99.90
24262;DHT22;12385;51.412;5.540;2023-11-19T08:54:33;12.00;99.90
24262;DHT22;12385;51.412;5.540;2023-11-19T08:56:59;12.00;99.90
24262;DHT22;12385;51.412;5.540;2023-11-19T08:59:25;12.10;99.90
24262;DHT22;12385;51.412;5.540;2023-11-19T09:01:51;12.10;99.90
24262;DHT22;12385;51.412;5.540;2023-11-19T09:04:16;12.10;99.90
24262;DHT22;12385;51.412;5.540;2023-11-19T09:06:42;12.10;99.90
24262;DHT22;12385;51.412;5.540;2023-11-19T09:09:08;12.20;99.90
24262;DHT22;12385;51.412;5.540;2023-11-19T09:11:35;12.20;99.90
24262;DHT22;12385;51.412;5.540;2023-11-19T09:14:00;12.20;99.90
24262;DHT22;12385;51.412;5.540;2023-11-19T09:16:26;12.30;99.90
24262;DHT22;12385;51.412;5.540;2023-11-19T09:18:52;12.30;99.90
24262;DHT22;12385;51.412;5.540;2023-11-19T09:21:17;12.30;99.90
24262;DHT22;12385;51.412;5.540;2023-11-19T09:23:43;12.40;99.90
24262;DHT22;12385;51.412;5.540;2023-11-19T09:26:09;12.40;99.90
24262;DHT22;12385;51.412;5.540;2023-11-19T09:28:38;12.40;99.90
24262;DHT22;12385;51.412;5.540;2023-11-19T09:31:13;12.50;99.90
24262;DHT22;12385;51.412;5.540;2023-11-19T09:33:39;12.50;99.90
24262;DHT22;12385;51.412;5.540;2023-11-19T09:36:05;12.60;99.90
24262;DHT22;12385;51.412;5.540;2023-11-19T09:38:31;12.60;99.90
24262;DHT22;12385;51.412;5.540;2023-11-19T09:40:58;12.70;99.90
24262;DHT22;12385;51.412;5.540;2023-11-19T09:43:27;12.70;99.90
24262;DHT22;12385;51.412;5.540;2023-11-19T09:45:55;12.80;99.90
24262;DHT22;12385;51.412;5.540;2023-11-19T09:48:21;12.80;99.90
24262;DHT22;12385;51.412;5.540;2023-11-19T09:50:52;12.80;99.90
24262;DHT22;12385;51.412;5.540;2023-11-19T09:53:18;12.90;99.90
24262;DHT22;12385;51.412;5.540;2023-11-19T09:55:45;12.90;99.90
24262;DHT22;12385;51.412;5.540;2023-11-19T09:58:13;13.00;99.90
24262;DHT22;12385;51.412;5.540;2023-11-19T10:00:40;13.00;99.90
24262;DHT22;12385;51.412;5.540;2023-11-19T10:03:07;13.00;99.90
24262;DHT22;12385;51.412;5.540;2023-11-19T10:05:36;13.10;99.90
24262;DHT22;12385;51.412;5.540;2023-11-19T10:08:04;13.10;99.90
24262;DHT22;12385;51.412;5.540;2023-11-19T10:10:30;13.20;99.90
24262;DHT22;12385;51.412;5.540;2023-11-19T10:12:56;13.20;99.90
24262;DHT22;12385;51.412;5.540;2023-11-19T10:15:23;13.20;99.90
24262;DHT22;12385;51.412;5.540;2023-11-19T10:17:51;13.20;99.90
24262;DHT22;12385;51.412;5.540;2023-11-19T10:20:17;13.20;99.90
24262;DHT22;12385;51.412;5.540;2023-11-19T10:22:43;13.20;99.90
24262;DHT22;12385;51.412;5.540;2023-11-19T10:25:28;13.20;99.90
24262;DHT22;12385;51.412;5.540;2023-11-19T10:27:55;13.20;99.90
24262;DHT22;12385;51.412;5.540;2023-11-19T10:30:23;13.30;99.90
24262;DHT22;12385;51.412;5.540;2023-11-19T10:35:54;13.40;99.90
24262;DHT22;12385;51.412;5.540;2023-11-19T10:38:22;13.40;99.90
24262;DHT22;12385;51.412;5.540;2023-11-19T10:40:49;13.50;99.90
24262;DHT22;12385;51.412;5.540;2023-11-19T10:43:16;13.50;99.90
24262;DHT22;12385;51.412;5.540;2023-11-19T10:45:42;13.50;99.90
24262;DHT22;12385;51.412;5.540;2023-11-19T10:48:08;13.60;99.90
24262;DHT22;12385;51.412;5.540;2023-11-19T10:50:37;13.60;99.90
24262;DHT22;12385;51.412;5.540;2023-11-19T10:53:04;13.60;99.90
24262;DHT22;12385;51.412;5.540;2023-11-19T10:55:31;13.50;99.90
24262;DHT22;12385;51.412;5.540;2023-11-19T10:58:03;13.50;99.90
24262;DHT22;12385;51.412;5.540;2023-11-19T11:00:51;13.50;99.90
24262;DHT22;12385;51.412;5.540;2023-11-19T11:03:18;13.50;99.90
24262;DHT22;12385;51.412;5.540;2023-11-19T11:05:47;13.50;99.90
24262;DHT22;12385;51.412;5.540;2023-11-19T11:08:13;13.60;99.90
24262;DHT22;12385;51.412;5.540;2023-11-19T11:10:53;13.60;99.90
24262;DHT22;12385;51.412;5.540;2023-11-19T11:13:22;13.60;99.90
24262;DHT22;12385;51.412;5.540;2023-11-19T11:15:53;13.70;99.90
24262;DHT22;12385;51.412;5.540;2023-11-19T11:18:21;13.60;99.90
24262;DHT22;12385;51.412;5.540;2023-11-19T11:20:52;13.60;99.90
24262;DHT22;12385;51.412;5.540;2023-11-19T11:23:36;13.60;99.90
24262;DHT22;12385;51.412;5.540;2023-11-19T11:29:03;13.50;99.90
24262;DHT22;12385;51.412;5.540;2023-11-19T11:39:40;13.40;99.90
24262;DHT22;12385;51.412;5.540;2023-11-19T11:50:18;12.90;99.90
24262;DHT22;12385;51.412;5.540;2023-11-19T11:55:25;12.60;99.90
24262;DHT22;12385;51.412;5.540;2023-11-19T11:57:51;12.50;99.90
24262;DHT22;12385;51.412;5.540;2023-11-19T12:03:00;12.40;99.90
24262;DHT22;12385;51.412;5.540;2023-11-19T12:05:27;12.40;99.90
24262;DHT22;12385;51.412;5.540;2023-11-19T12:08:01;12.40;99.90
24262;DHT22;12385;51.412;5.540;2023-11-19T12:10:34;12.50;99.90
24262;DHT22;12385;51.412;5.540;2023-11-19T12:13:05;12.50;99.90
24262;DHT22;12385;51.412;5.540;2023-11-19T12:18:29;12.70;99.90
24262;DHT22;12385;51.412;5.540;2023-11-19T12:20:56;12.70;99.90
24262;DHT22;12385;51.412;5.540;2023-11-19T12:23:28;12.70;99.90
24262;DHT22;12385;51.412;5.540;2023-11-19T12:25:56;12.70;99.90
24262;DHT22;12385;51.412;5.540;2023-11-19T12:28:21;12.80;99.90
24262;DHT22;12385;51.412;5.540;2023-11-19T12:30:51;12.80;99.90
24262;DHT22;12385;51.412;5.540;2023-11-19T12:33:17;12.90;99.90
24262;DHT22;12385;51.412;5.540;2023-11-19T12:35:45;12.90;99.90
24262;DHT22;12385;51.412;5.540;2023-11-19T12:38:24;12.90;99.90
24262;DHT22;12385;51.412;5.540;2023-11-19T12:41:09;13.00;99.90
24262;DHT22;12385;51.412;5.540;2023-11-19T12:43:37;12.90;99.90
24262;DHT22;12385;51.412;5.540;2023-11-19T12:48:47;13.00;99.90
24262;DHT22;12385;51.412;5.540;2023-11-19T12:51:13;13.10;99.90
24262;DHT22;12385;51.412;5.540;2023-11-19T12:53:52;13.20;99.90
24262;DHT22;12385;51.412;5.540;2023-11-19T12:56:21;13.20;99.90
24262;DHT22;12385;51.412;5.540;2023-11-19T12:58:48;13.20;99.90
24262;DHT22;12385;51.412;5.540;2023-11-19T13:01:19;13.20;99.90
24262;DHT22;12385;51.412;5.540;2023-11-19T13:03:47;13.30;99.90
24262;DHT22;12385;51.412;5.540;2023-11-19T13:06:14;13.30;99.90
24262;DHT22;12385;51.412;5.540;2023-11-19T13:08:42;13.30;99.90
24262;DHT22;12385;51.412;5.540;2023-11-19T13:11:12;13.20;99.90
24262;DHT22;12385;51.412;5.540;2023-11-19T13:13:57;13.10;99.90
24262;DHT22;12385;51.412;5.540;2023-11-19T13:16:23;13.00;99.90
24262;DHT22;12385;51.412;5.540;2023-11-19T13:18:51;12.90;99.90
24262;DHT22;12385;51.412;5.540;2023-11-19T13:21:17;12.70;99.90
24262;DHT22;12385;51.412;5.540;2023-11-19T13:23:43;12.60;99.90
24262;DHT22;12385;51.412;5.540;2023-11-19T13:26:09;12.60;99.90
24262;DHT22;12385;51.412;5.540;2023-11-19T13:28:35;12.60;99.90
24262;DHT22;12385;51.412;5.540;2023-11-19T13:31:00;12.60;99.90
24262;DHT22;12385;51.412;5.540;2023-11-19T13:33:26;12.70;99.90
24262;DHT22;12385;51.412;5.540;2023-11-19T13:35:52;12.80;99.90
24262;DHT22;12385;51.412;5.540;2023-11-19T13:38:18;12.90;99.90
24262;DHT22;12385;51.412;5.540;2023-11-19T13:40:44;12.90;99.90
24262;DHT22;12385;51.412;5.540;2023-11-19T13:43:10;12.90;99.90
24262;DHT22;12385;51.412;5.540;2023-11-19T13:45:35;12.90;99.90
24262;DHT22;12385;51.412;5.540;2023-11-19T13:48:01;12.90;99.90
24262;DHT22;12385;51.412;5.540;2023-11-19T13:50:26;12.90;99.90
24262;DHT22;12385;51.412;5.540;2023-11-19T13:52:54;13.00;99.90
24262;DHT22;12385;51.412;5.540;2023-11-19T13:55:21;12.90;99.90
24262;DHT22;12385;51.412;5.540;2023-11-19T13:57:48;12.80;99.90
24262;DHT22;12385;51.412;5.540;2023-11-19T14:00:14;12.80;99.90
24262;DHT22;12385;51.412;5.540;2023-11-19T14:02:46;12.80;99.90
24262;DHT22;12385;51.412;5.540;2023-11-19T14:05:17;12.90;99.90
24262;DHT22;12385;51.412;5.540;2023-11-19T14:07:43;13.00;99.90
24262;DHT22;12385;51.412;5.540;2023-11-19T14:10:09;13.00;99.90
24262;DHT22;12385;51.412;5.540;2023-11-19T14:12:36;13.00;99.90
24262;DHT22;12385;51.412;5.540;2023-11-19T14:15:03;13.00;99.90
24262;DHT22;12385;51.412;5.540;2023-11-19T14:17:31;12.90;99.90
24262;DHT22;12385;51.412;5.540;2023-11-19T14:19:56;12.90;99.90
24262;DHT22;12385;51.412;5.540;2023-11-19T14:22:22;12.80;99.90
24262;DHT22;12385;51.412;5.540;2023-11-19T14:24:48;12.70;99.90
24262;DHT22;12385;51.412;5.540;2023-11-19T14:27:14;12.60;99.90
24262;DHT22;12385;51.412;5.540;2023-11-19T14:29:39;12.50;99.90
24262;DHT22;12385;51.412;5.540;2023-11-19T14:32:06;12.40;99.90
24262;DHT22;12385;51.412;5.540;2023-11-19T14:34:32;12.40;99.90
24262;DHT22;12385;51.412;5.540;2023-11-19T14:36:58;12.40;99.90
24262;DHT22;12385;51.412;5.540;2023-11-19T14:39:24;12.30;99.90
24262;DHT22;12385;51.412;5.540;2023-11-19T14:41:50;12.30;99.90
24262;DHT22;12385;51.412;5.540;2023-11-19T14:44:17;12.30;99.90
24262;DHT22;12385;51.412;5.540;2023-11-19T14:46:46;12.30;99.90
24262;DHT22;12385;51.412;5.540;2023-11-19T14:49:12;12.30;99.90
24262;DHT22;12385;51.412;5.540;2023-11-19T14:51:39;12.30;99.90
24262;DHT22;12385;51.412;5.540;2023-11-19T14:54:05;12.20;99.90
24262;DHT22;12385;51.412;5.540;2023-11-19T14:56:31;12.20;99.90
24262;DHT22;12385;51.412;5.540;2023-11-19T14:58:57;12.20;99.90
24262;DHT22;12385;51.412;5.540;2023-11-19T15:01:24;12.20;99.90
24262;DHT22;12385;51.412;5.540;2023-11-19T15:03:50;12.20;99.90
24262;DHT22;12385;51.412;5.540;2023-11-19T15:06:16;12.20;99.90
24262;DHT22;12385;51.412;5.540;2023-11-19T15:08:42;12.10;99.90
24262;DHT22;12385;51.412;5.540;2023-11-19T15:11:08;12.10;99.90
24262;DHT22;12385;51.412;5.540;2023-11-19T15:13:35;12.10;99.90
24262;DHT22;12385;51.412;5.540;2023-11-19T15:16:03;12.10;99.90
24262;DHT22;12385;51.412;5.540;2023-11-19T15:18:31;12.10;99.90
24262;DHT22;12385;51.412;5.540;2023-11-19T15:20:57;12.10;99.90
24262;DHT22;12385;51.412;5.540;2023-11-19T15:23:22;12.00;99.90
24262;DHT22;12385;51.412;5.540;2023-11-19T15:25:51;12.00;99.90
24262;DHT22;12385;51.412;5.540;2023-11-19T15:28:17;12.00;99.90
24262;DHT22;12385;51.412;5.540;2023-11-19T15:30:45;12.00;99.90
24262;DHT22;12385;51.412;5.540;2023-11-19T15:33:11;12.00;99.90
24262;DHT22;12385;51.412;5.540;2023-11-19T15:35:37;12.00;99.90
24262;DHT22;12385;51.412;5.540;2023-11-19T15:38:05;11.90;99.90
24262;DHT22;12385;51.412;5.540;2023-11-19T15:40:32;11.90;99.90
24262;DHT22;12385;51.412;5.540;2023-11-19T15:42:58;11.90;99.90
24262;DHT22;12385;51.412;5.540;2023-11-19T15:45:24;11.90;99.90
24262;DHT22;12385;51.412;5.540;2023-11-19T15:47:51;11.80;99.90
24262;DHT22;12385;51.412;5.540;2023-11-19T15:50:17;11.80;99.90
24262;DHT22;12385;51.412;5.540;2023-11-19T15:52:43;11.80;99.90
24262;DHT22;12385;51.412;5.540;2023-11-19T15:55:10;11.80;99.90
24262;DHT22;12385;51.412;5.540;2023-11-19T15:57:39;11.80;99.90
24262;DHT22;12385;51.412;5.540;2023-11-19T16:00:05;11.80;99.90
24262;DHT22;12385;51.412;5.540;2023-11-19T16:02:30;11.80;99.90